sensor_id;sensor_type;location;lat;lon;timestamp;temperature;humidity
17154;DHT22;8692;52.164;7.558;2022-07-04T00:01:18;18.40;99.90
17154;DHT22;8692;52.164;7.558;2022-07-04T00:03:46;18.30;99.90
17154;DHT22;8692;52.164;7.558;2022-07-04T00:06:14;18.30;99.90
17154;DHT22;8692;52.164;7.558;2022-07-04T00:08:42;18.30;99.90
17154;DHT22;8692;52.164;7.558;2022-07-04T00:11:10;18.30;99.90
17154;DHT22;8692;52.164;7.558;2022-07-04T00:13:38;18.30;99.90
17154;DHT22;8692;52.164;7.558;2022-07-04T00:16:06;18.20;99.90
17154;DHT22;8692;52.164;7.558;2022-07-04T00:18:35;18.20;99.90
17154;DHT22;8692;52.164;7.558;2022-07-04T00:21:05;18.20;99.90
17154;DHT22;8692;52.164;7.558;2022-07-04T00:23:33;18.10;99.90
17154;DHT22;8692;52.164;7.558;2022-07-04T00:26:01;18.10;99.90
17154;DHT22;8692;52.164;7.558;2022-07-04T00:28:29;18.10;99.90
17154;DHT22;8692;52.164;7.558;2022-07-04T00:30:57;18.00;99.90
17154;DHT22;8692;52.164;7.558;2022-07-04T00:33:25;18.00;99.90
17154;DHT22;8692;52.164;7.558;2022-07-04T00:35:54;18.00;99.90
17154;DHT22;8692;52.164;7.558;2022-07-04T00:38:22;18.00;99.90
17154;DHT22;8692;52.164;7.558;2022-07-04T00:40:50;18.00;99.90
17154;DHT22;8692;52.164;7.558;2022-07-04T00:43:21;18.00;99.90
17154;DHT22;8692;52.164;7.558;2022-07-04T00:45:50;17.90;99.90
17154;DHT22;8692;52.164;7.558;2022-07-04T00:48:18;17.90;99.90
17154;DHT22;8692;52.164;7.558;2022-07-04T00:50:46;17.80;99.90
17154;DHT22;8692;52.164;7.558;2022-07-04T00:53:15;17.80;99.90
17154;DHT22;8692;52.164;7.558;2022-07-04T00:55:44;17.80;99.90
17154;DHT22;8692;52.164;7.558;2022-07-04T00:58:12;17.80;99.90
17154;DHT22;8692;52.164;7.558;2022-07-04T01:00:40;17.80;99.90
17154;DHT22;8692;52.164;7.558;2022-07-04T01:03:08;17.70;99.90
17154;DHT22;8692;52.164;7.558;2022-07-04T01:05:37;17.70;99.90
17154;DHT22;8692;52.164;7.558;2022-07-04T01:08:05;17.70;99.90
17154;DHT22;8692;52.164;7.558;2022-07-04T01:10:34;17.70;99.90
17154;DHT22;8692;52.164;7.558;2022-07-04T01:13:02;17.70;99.90
17154;DHT22;8692;52.164;7.558;2022-07-04T01:15:30;17.70;99.90
17154;DHT22;8692;52.164;7.558;2022-07-04T01:17:58;17.60;99.90
17154;DHT22;8692;52.164;7.558;2022-07-04T01:20:32;17.60;99.90
17154;DHT22;8692;52.164;7.558;2022-07-04T01:23:00;17.50;99.90
17154;DHT22;8692;52.164;7.558;2022-07-04T01:25:28;17.50;99.90
17154;DHT22;8692;52.164;7.558;2022-07-04T01:27:57;17.50;99.90
17154;DHT22;8692;52.164;7.558;2022-07-04T01:30:24;17.40;99.90
17154;DHT22;8692;52.164;7.558;2022-07-04T01:32:53;17.40;99.90
17154;DHT22;8692;52.164;7.558;2022-07-04T01:35:21;17.40;99.90
17154;DHT22;8692;52.164;7.558;2022-07-04T01:37:50;17.40;99.90
17154;DHT22;8692;52.164;7.558;2022-07-04T01:40:18;17.30;99.90
17154;DHT22;8692;52.164;7.558;2022-07-04T01:42:46;17.30;99.90
17154;DHT22;8692;52.164;7.558;2022-07-04T01:45:14;17.30;99.90
17154;DHT22;8692;52.164;7.558;2022-07-04T01:47:42;17.30;99.90
17154;DHT22;8692;52.164;7.558;2022-07-04T01:50:10;17.20;99.90
17154;DHT22;8692;52.164;7.558;2022-07-04T01:52:39;17.20;99.90
17154;DHT22;8692;52.164;7.558;2022-07-04T01:55:09;17.20;99.90
17154;DHT22;8692;52.164;7.558;2022-07-04T01:57:37;17.20;99.90
17154;DHT22;8692;52.164;7.558;2022-07-04T02:00:06;17.10;99.90
17154;DHT22;8692;52.164;7.558;2022-07-04T02:02:51;17.10;99.90
17154;DHT22;8692;52.164;7.558;2022-07-04T02:05:19;17.10;99.90
17154;DHT22;8692;52.164;7.558;2022-07-04T02:07:48;17.10;99.90
17154;DHT22;8692;52.164;7.558;2022-07-04T02:10:18;17.10;99.90
17154;DHT22;8692;52.164;7.558;2022-07-04T02:12:46;17.10;99.90
17154;DHT22;8692;52.164;7.558;2022-07-04T02:15:28;17.00;99.90
17154;DHT22;8692;52.164;7.558;2022-07-04T02:17:56;17.00;99.90
17154;DHT22;8692;52.164;7.558;2022-07-04T02:20:24;17.00;99.90
17154;DHT22;8692;52.164;7.558;2022-07-04T02:22:52;16.90;99.90
17154;DHT22;8692;52.164;7.558;2022-07-04T02:25:22;17.00;99.90
17154;DHT22;8692;52.164;7.558;2022-07-04T02:27:50;16.90;99.90
17154;DHT22;8692;52.164;7.558;2022-07-04T02:30:18;16.90;99.90
17154;DHT22;8692;52.164;7.558;2022-07-04T02:32:45;16.90;99.90
17154;DHT22;8692;52.164;7.558;2022-07-04T02:35:13;16.90;99.90
17154;DHT22;8692;52.164;7.558;2022-07-04T02:37:41;16.80;99.90
17154;DHT22;8692;52.164;7.558;2022-07-04T02:40:09;16.80;99.90
17154;DHT22;8692;52.164;7.558;2022-07-04T02:42:38;16.70;99.90
17154;DHT22;8692;52.164;7.558;2022-07-04T02:45:07;16.70;99.90
17154;DHT22;8692;52.164;7.558;2022-07-04T02:47:35;16.70;99.90
17154;DHT22;8692;52.164;7.558;2022-07-04T02:50:03;16.70;99.90
17154;DHT22;8692;52.164;7.558;2022-07-04T02:52:31;16.60;99.90
17154;DHT22;8692;52.164;7.558;2022-07-04T02:54:59;16.60;99.90
17154;DHT22;8692;52.164;7.558;2022-07-04T02:57:28;16.60;99.90
17154;DHT22;8692;52.164;7.558;2022-07-04T02:59:57;16.60;99.90
17154;DHT22;8692;52.164;7.558;2022-07-04T03:02:25;16.50;99.90
17154;DHT22;8692;52.164;7.558;2022-07-04T03:04:53;16.50;99.90
17154;DHT22;8692;52.164;7.558;2022-07-04T03:07:21;16.50;99.90
17154;DHT22;8692;52.164;7.558;2022-07-04T03:09:49;16.50;99.90
17154;DHT22;8692;52.164;7.558;2022-07-04T03:12:16;16.40;99.90
17154;DHT22;8692;52.164;7.558;2022-07-04T03:14:44;16.40;99.90
17154;DHT22;8692;52.164;7.558;2022-07-04T03:17:14;16.40;99.90
17154;DHT22;8692;52.164;7.558;2022-07-04T03:19:42;16.40;99.90
17154;DHT22;8692;52.164;7.558;2022-07-04T03:22:10;16.40;99.90
17154;DHT22;8692;52.164;7.558;2022-07-04T03:24:38;16.30;99.90
17154;DHT22;8692;52.164;7.558;2022-07-04T03:27:06;16.30;99.90
17154;DHT22;8692;52.164;7.558;2022-07-04T03:29:33;16.30;99.90
17154;DHT22;8692;52.164;7.558;2022-07-04T03:32:01;16.30;99.90
17154;DHT22;8692;52.164;7.558;2022-07-04T03:34:31;16.20;99.90
17154;DHT22;8692;52.164;7.558;2022-07-04T03:36:59;16.20;99.90
17154;DHT22;8692;52.164;7.558;2022-07-04T03:39:27;16.20;99.90
17154;DHT22;8692;52.164;7.558;2022-07-04T03:41:55;16.20;99.90
17154;DHT22;8692;52.164;7.558;2022-07-04T03:44:23;16.20;99.90
17154;DHT22;8692;52.164;7.558;2022-07-04T03:46:51;16.20;99.90
17154;DHT22;8692;52.164;7.558;2022-07-04T03:49:18;16.10;99.90
17154;DHT22;8692;52.164;7.558;2022-07-04T03:51:48;16.10;99.90
17154;DHT22;8692;52.164;7.558;2022-07-04T03:54:16;16.10;99.90
17154;DHT22;8692;52.164;7.558;2022-07-04T03:56:43;16.10;99.90
17154;DHT22;8692;52.164;7.558;2022-07-04T03:59:11;16.10;99.90
17154;DHT22;8692;52.164;7.558;2022-07-04T04:01:39;16.10;99.90
17154;DHT22;8692;52.164;7.558;2022-07-04T04:04:08;16.00;99.90
17154;DHT22;8692;52.164;7.558;2022-07-04T04:06:54;16.00;99.90
17154;DHT22;8692;52.164;7.558;2022-07-04T04:09:22;16.10;99.90
17154;DHT22;8692;52.164;7.558;2022-07-04T04:11:51;16.10;99.90
17154;DHT22;8692;52.164;7.558;2022-07-04T04:14:19;16.00;99.90
17154;DHT22;8692;52.164;7.558;2022-07-04T04:16:47;16.00;99.90
17154;DHT22;8692;52.164;7.558;2022-07-04T04:19:15;16.00;99.90
17154;DHT22;8692;52.164;7.558;2022-07-04T04:21:43;16.00;99.90
17154;DHT22;8692;52.164;7.558;2022-07-04T04:24:12;16.00;99.90
17154;DHT22;8692;52.164;7.558;2022-07-04T04:26:40;16.00;99.90
17154;DHT22;8692;52.164;7.558;2022-07-04T04:29:08;16.00;99.90
17154;DHT22;8692;52.164;7.558;2022-07-04T04:31:36;16.00;99.90
17154;DHT22;8692;52.164;7.558;2022-07-04T04:34:04;16.00;99.90
17154;DHT22;8692;52.164;7.558;2022-07-04T04:36:32;16.00;99.90
17154;DHT22;8692;52.164;7.558;2022-07-04T04:39:00;16.00;99.90
17154;DHT22;8692;52.164;7.558;2022-07-04T04:41:29;16.00;99.90
17154;DHT22;8692;52.164;7.558;2022-07-04T04:43:57;16.00;99.90
17154;DHT22;8692;52.164;7.558;2022-07-04T04:46:25;16.00;99.90
17154;DHT22;8692;52.164;7.558;2022-07-04T04:48:53;16.00;99.90
17154;DHT22;8692;52.164;7.558;2022-07-04T04:51:20;16.00;99.90
17154;DHT22;8692;52.164;7.558;2022-07-04T04:53:48;16.00;99.90
17154;DHT22;8692;52.164;7.558;2022-07-04T04:56:16;16.00;99.90
17154;DHT22;8692;52.164;7.558;2022-07-04T04:58:46;16.00;99.90
17154;DHT22;8692;52.164;7.558;2022-07-04T05:01:14;16.00;99.90
17154;DHT22;8692;52.164;7.558;2022-07-04T05:04:01;16.00;99.90
17154;DHT22;8692;52.164;7.558;2022-07-04T05:06:30;16.00;99.90
17154;DHT22;8692;52.164;7.558;2022-07-04T05:08:57;16.00;99.90
17154;DHT22;8692;52.164;7.558;2022-07-04T05:11:25;16.00;99.90
17154;DHT22;8692;52.164;7.558;2022-07-04T05:13:55;16.10;99.90
17154;DHT22;8692;52.164;7.558;2022-07-04T05:16:23;16.10;99.90
17154;DHT22;8692;52.164;7.558;2022-07-04T05:18:51;16.10;99.90
17154;DHT22;8692;52.164;7.558;2022-07-04T05:21:19;16.20;99.90
17154;DHT22;8692;52.164;7.558;2022-07-04T05:23:47;16.10;99.90
17154;DHT22;8692;52.164;7.558;2022-07-04T05:26:15;16.20;99.90
17154;DHT22;8692;52.164;7.558;2022-07-04T05:28:42;16.20;99.90
17154;DHT22;8692;52.164;7.558;2022-07-04T05:31:12;16.30;99.90
17154;DHT22;8692;52.164;7.558;2022-07-04T05:33:40;16.30;99.90
17154;DHT22;8692;52.164;7.558;2022-07-04T05:36:08;16.30;99.90
17154;DHT22;8692;52.164;7.558;2022-07-04T05:38:36;16.40;99.90
17154;DHT22;8692;52.164;7.558;2022-07-04T05:41:04;16.40;99.90
17154;DHT22;8692;52.164;7.558;2022-07-04T05:43:31;16.40;99.90
17154;DHT22;8692;52.164;7.558;2022-07-04T05:45:59;16.50;99.90
17154;DHT22;8692;52.164;7.558;2022-07-04T05:48:29;16.50;99.90
17154;DHT22;8692;52.164;7.558;2022-07-04T05:50:57;16.60;99.90
17154;DHT22;8692;52.164;7.558;2022-07-04T05:53:25;16.60;99.90
17154;DHT22;8692;52.164;7.558;2022-07-04T05:55:53;16.70;99.90
17154;DHT22;8692;52.164;7.558;2022-07-04T05:58:21;16.80;99.90
17154;DHT22;8692;52.164;7.558;2022-07-04T06:00:48;16.80;99.90
17154;DHT22;8692;52.164;7.558;2022-07-04T06:03:16;16.90;99.90
17154;DHT22;8692;52.164;7.558;2022-07-04T06:05:51;17.00;99.90
17154;DHT22;8692;52.164;7.558;2022-07-04T06:08:19;17.00;99.90
17154;DHT22;8692;52.164;7.558;2022-07-04T06:10:47;17.10;99.90
17154;DHT22;8692;52.164;7.558;2022-07-04T06:13:15;17.10;99.90
17154;DHT22;8692;52.164;7.558;2022-07-04T06:15:43;17.20;99.90
17154;DHT22;8692;52.164;7.558;2022-07-04T06:18:11;17.30;99.90
17154;DHT22;8692;52.164;7.558;2022-07-04T06:20:39;17.30;99.90
17154;DHT22;8692;52.164;7.558;2022-07-04T06:23:09;17.40;99.90
17154;DHT22;8692;52.164;7.558;2022-07-04T06:25:37;17.40;99.90
17154;DHT22;8692;52.164;7.558;2022-07-04T06:28:04;17.50;99.90
17154;DHT22;8692;52.164;7.558;2022-07-04T06:30:32;17.50;99.90
17154;DHT22;8692;52.164;7.558;2022-07-04T06:33:00;17.60;99.90
17154;DHT22;8692;52.164;7.558;2022-07-04T06:35:29;17.70;99.90
17154;DHT22;8692;52.164;7.558;2022-07-04T06:38:23;17.70;99.90
17154;DHT22;8692;52.164;7.558;2022-07-04T06:40:53;17.70;99.90
17154;DHT22;8692;52.164;7.558;2022-07-04T06:43:21;17.80;99.90
17154;DHT22;8692;52.164;7.558;2022-07-04T06:45:49;17.90;99.90
17154;DHT22;8692;52.164;7.558;2022-07-04T06:48:18;17.90;99.90
17154;DHT22;8692;52.164;7.558;2022-07-04T06:50:46;17.90;99.90
17154;DHT22;8692;52.164;7.558;2022-07-04T06:53:13;18.00;99.90
17154;DHT22;8692;52.164;7.558;2022-07-04T06:55:43;18.00;99.90
17154;DHT22;8692;52.164;7.558;2022-07-04T06:58:11;18.10;99.90
17154;DHT22;8692;52.164;7.558;2022-07-04T07:00:39;18.10;99.90
17154;DHT22;8692;52.164;7.558;2022-07-04T07:03:09;18.10;99.90
17154;DHT22;8692;52.164;7.558;2022-07-04T07:05:37;18.20;99.90
17154;DHT22;8692;52.164;7.558;2022-07-04T07:08:25;18.20;99.90
17154;DHT22;8692;52.164;7.558;2022-07-04T07:10:55;18.30;99.90
17154;DHT22;8692;52.164;7.558;2022-07-04T07:13:23;18.40;99.90
17154;DHT22;8692;52.164;7.558;2022-07-04T07:15:51;18.50;99.90
17154;DHT22;8692;52.164;7.558;2022-07-04T07:18:19;18.50;99.90
17154;DHT22;8692;52.164;7.558;2022-07-04T07:20:47;18.60;99.90
17154;DHT22;8692;52.164;7.558;2022-07-04T07:23:15;18.60;99.90
17154;DHT22;8692;52.164;7.558;2022-07-04T07:25:42;18.70;99.90
17154;DHT22;8692;52.164;7.558;2022-07-04T07:28:12;18.70;99.90
17154;DHT22;8692;52.164;7.558;2022-07-04T07:30:40;18.80;99.90
17154;DHT22;8692;52.164;7.558;2022-07-04T07:33:08;18.80;99.90
17154;DHT22;8692;52.164;7.558;2022-07-04T07:35:36;18.90;99.90
17154;DHT22;8692;52.164;7.558;2022-07-04T07:38:04;18.90;99.90
17154;DHT22;8692;52.164;7.558;2022-07-04T07:40:33;19.00;99.90
17154;DHT22;8692;52.164;7.558;2022-07-04T07:43:01;19.10;99.90
17154;DHT22;8692;52.164;7.558;2022-07-04T07:45:30;19.10;99.90
17154;DHT22;8692;52.164;7.558;2022-07-04T07:47:58;19.10;99.90
17154;DHT22;8692;52.164;7.558;2022-07-04T07:50:26;19.20;99.90
17154;DHT22;8692;52.164;7.558;2022-07-04T07:52:54;19.20;99.90
17154;DHT22;8692;52.164;7.558;2022-07-04T07:55:22;19.30;99.90
17154;DHT22;8692;52.164;7.558;2022-07-04T07:57:50;19.30;99.90
17154;DHT22;8692;52.164;7.558;2022-07-04T08:00:19;19.30;99.90
17154;DHT22;8692;52.164;7.558;2022-07-04T08:03:08;19.40;99.90
17154;DHT22;8692;52.164;7.558;2022-07-04T08:05:53;19.40;99.90
17154;DHT22;8692;52.164;7.558;2022-07-04T08:08:23;19.40;99.90
17154;DHT22;8692;52.164;7.558;2022-07-04T08:10:51;19.40;99.90
17154;DHT22;8692;52.164;7.558;2022-07-04T08:13:19;19.40;99.90
17154;DHT22;8692;52.164;7.558;2022-07-04T08:15:47;19.40;99.90
17154;DHT22;8692;52.164;7.558;2022-07-04T08:18:16;19.50;99.90
17154;DHT22;8692;52.164;7.558;2022-07-04T08:20:45;19.50;99.90
17154;DHT22;8692;52.164;7.558;2022-07-04T08:23:27;19.50;99.90
17154;DHT22;8692;52.164;7.558;2022-07-04T08:25:55;19.60;99.90
17154;DHT22;8692;52.164;7.558;2022-07-04T08:28:23;19.60;99.90
17154;DHT22;8692;52.164;7.558;2022-07-04T08:30:51;19.70;99.90
17154;DHT22;8692;52.164;7.558;2022-07-04T08:33:20;19.70;99.90
17154;DHT22;8692;52.164;7.558;2022-07-04T08:35:48;19.80;99.90
17154;DHT22;8692;52.164;7.558;2022-07-04T08:38:16;19.80;99.90
17154;DHT22;8692;52.164;7.558;2022-07-04T08:40:45;19.80;99.90
17154;DHT22;8692;52.164;7.558;2022-07-04T08:43:14;19.90;99.90
17154;DHT22;8692;52.164;7.558;2022-07-04T08:45:42;20.00;99.90
17154;DHT22;8692;52.164;7.558;2022-07-04T08:48:34;20.10;99.90
17154;DHT22;8692;52.164;7.558;2022-07-04T08:51:04;20.10;99.90
17154;DHT22;8692;52.164;7.558;2022-07-04T08:53:32;20.20;99.90
17154;DHT22;8692;52.164;7.558;2022-07-04T08:56:01;20.30;99.90
17154;DHT22;8692;52.164;7.558;2022-07-04T08:58:46;20.40;99.90
17154;DHT22;8692;52.164;7.558;2022-07-04T09:01:15;20.50;99.90
17154;DHT22;8692;52.164;7.558;2022-07-04T09:03:44;20.60;99.90
17154;DHT22;8692;52.164;7.558;2022-07-04T09:06:13;20.70;99.90
17154;DHT22;8692;52.164;7.558;2022-07-04T09:08:41;20.80;99.90
17154;DHT22;8692;52.164;7.558;2022-07-04T09:11:09;20.80;99.80
17154;DHT22;8692;52.164;7.558;2022-07-04T09:13:36;20.90;99.90
17154;DHT22;8692;52.164;7.558;2022-07-04T09:16:05;21.00;98.20
17154;DHT22;8692;52.164;7.558;2022-07-04T09:18:34;21.10;98.00
17154;DHT22;8692;52.164;7.558;2022-07-04T09:21:03;21.20;96.80
17154;DHT22;8692;52.164;7.558;2022-07-04T09:23:32;21.30;97.50
17154;DHT22;8692;52.164;7.558;2022-07-04T09:26:07;21.30;96.50
17154;DHT22;8692;52.164;7.558;2022-07-04T09:28:35;21.40;95.90
17154;DHT22;8692;52.164;7.558;2022-07-04T09:31:12;21.50;95.30
17154;DHT22;8692;52.164;7.558;2022-07-04T09:33:44;21.60;93.70
17154;DHT22;8692;52.164;7.558;2022-07-04T09:36:14;21.70;93.50
17154;DHT22;8692;52.164;7.558;2022-07-04T09:38:42;21.80;92.80
17154;DHT22;8692;52.164;7.558;2022-07-04T09:41:10;21.90;92.80
17154;DHT22;8692;52.164;7.558;2022-07-04T09:43:59;22.10;92.60
17154;DHT22;8692;52.164;7.558;2022-07-04T09:46:28;22.30;92.00
17154;DHT22;8692;52.164;7.558;2022-07-04T09:48:56;22.40;91.30
17154;DHT22;8692;52.164;7.558;2022-07-04T09:51:38;22.50;91.10
17154;DHT22;8692;52.164;7.558;2022-07-04T09:54:13;22.60;90.80
17154;DHT22;8692;52.164;7.558;2022-07-04T09:56:41;22.80;90.40
17154;DHT22;8692;52.164;7.558;2022-07-04T09:59:09;22.80;90.10
17154;DHT22;8692;52.164;7.558;2022-07-04T10:01:37;22.90;87.40
17154;DHT22;8692;52.164;7.558;2022-07-04T10:04:06;23.00;89.20
17154;DHT22;8692;52.164;7.558;2022-07-04T10:06:37;23.00;88.60
17154;DHT22;8692;52.164;7.558;2022-07-04T10:09:10;23.00;88.60
17154;DHT22;8692;52.164;7.558;2022-07-04T10:11:39;23.10;85.90
17154;DHT22;8692;52.164;7.558;2022-07-04T10:14:08;23.20;85.80
17154;DHT22;8692;52.164;7.558;2022-07-04T10:16:36;23.30;85.90
17154;DHT22;8692;52.164;7.558;2022-07-04T10:19:05;23.30;82.90
17154;DHT22;8692;52.164;7.558;2022-07-04T10:21:33;23.40;82.60
17154;DHT22;8692;52.164;7.558;2022-07-04T10:24:01;23.50;83.00
17154;DHT22;8692;52.164;7.558;2022-07-04T10:26:32;23.60;82.20
17154;DHT22;8692;52.164;7.558;2022-07-04T10:28:59;23.80;80.30
17154;DHT22;8692;52.164;7.558;2022-07-04T10:31:28;23.90;78.90
17154;DHT22;8692;52.164;7.558;2022-07-04T10:33:58;24.00;80.40
17154;DHT22;8692;52.164;7.558;2022-07-04T10:36:26;24.10;80.60
17154;DHT22;8692;52.164;7.558;2022-07-04T10:38:57;24.10;78.20
17154;DHT22;8692;52.164;7.558;2022-07-04T10:41:26;24.10;77.80
17154;DHT22;8692;52.164;7.558;2022-07-04T10:43:57;24.00;76.80
17154;DHT22;8692;52.164;7.558;2022-07-04T10:46:46;24.10;76.60
17154;DHT22;8692;52.164;7.558;2022-07-04T10:49:18;24.10;77.30
17154;DHT22;8692;52.164;7.558;2022-07-04T10:51:47;24.20;78.70
17154;DHT22;8692;52.164;7.558;2022-07-04T10:54:16;24.30;78.70
17154;DHT22;8692;52.164;7.558;2022-07-04T10:56:45;24.40;78.00
17154;DHT22;8692;52.164;7.558;2022-07-04T10:59:17;24.40;76.70
17154;DHT22;8692;52.164;7.558;2022-07-04T11:01:45;24.40;76.30
17154;DHT22;8692;52.164;7.558;2022-07-04T11:10:18;24.30;76.60
17154;DHT22;8692;52.164;7.558;2022-07-04T11:13:02;24.30;75.10
17154;DHT22;8692;52.164;7.558;2022-07-04T11:18:20;24.30;74.90
17154;DHT22;8692;52.164;7.558;2022-07-04T11:20:49;24.40;76.20
17154;DHT22;8692;52.164;7.558;2022-07-04T11:23:18;24.50;76.30
17154;DHT22;8692;52.164;7.558;2022-07-04T11:25:47;24.50;74.80
17154;DHT22;8692;52.164;7.558;2022-07-04T11:28:17;24.60;73.50
17154;DHT22;8692;52.164;7.558;2022-07-04T11:31:05;24.60;74.10
17154;DHT22;8692;52.164;7.558;2022-07-04T11:33:34;24.60;74.70
17154;DHT22;8692;52.164;7.558;2022-07-04T11:36:04;24.70;74.10
17154;DHT22;8692;52.164;7.558;2022-07-04T11:38:45;24.80;74.90
17154;DHT22;8692;52.164;7.558;2022-07-04T11:41:13;24.90;75.20
17154;DHT22;8692;52.164;7.558;2022-07-04T11:44:01;25.00;74.60
17154;DHT22;8692;52.164;7.558;2022-07-04T11:46:47;25.10;72.30
17154;DHT22;8692;52.164;7.558;2022-07-04T11:49:16;25.20;71.60
17154;DHT22;8692;52.164;7.558;2022-07-04T11:51:45;25.20;72.40
17154;DHT22;8692;52.164;7.558;2022-07-04T11:54:13;25.10;72.10
17154;DHT22;8692;52.164;7.558;2022-07-04T11:57:12;25.10;71.90
17154;DHT22;8692;52.164;7.558;2022-07-04T11:59:40;25.20;73.20
17154;DHT22;8692;52.164;7.558;2022-07-04T12:02:12;25.20;73.60
17154;DHT22;8692;52.164;7.558;2022-07-04T12:04:41;25.20;72.60
17154;DHT22;8692;52.164;7.558;2022-07-04T12:07:10;25.30;73.60
17154;DHT22;8692;52.164;7.558;2022-07-04T12:09:39;25.30;71.80
17154;DHT22;8692;52.164;7.558;2022-07-04T12:12:07;25.40;71.20
17154;DHT22;8692;52.164;7.558;2022-07-04T12:14:35;25.40;71.80
17154;DHT22;8692;52.164;7.558;2022-07-04T12:17:13;25.50;71.40
17154;DHT22;8692;52.164;7.558;2022-07-04T12:22:30;25.50;69.00
17154;DHT22;8692;52.164;7.558;2022-07-04T12:24:58;25.50;69.60
17154;DHT22;8692;52.164;7.558;2022-07-04T12:27:27;25.50;68.90
17154;DHT22;8692;52.164;7.558;2022-07-04T12:29:56;25.60;69.00
17154;DHT22;8692;52.164;7.558;2022-07-04T12:32:31;25.60;68.60
17154;DHT22;8692;52.164;7.558;2022-07-04T12:38:01;25.60;68.70
17154;DHT22;8692;52.164;7.558;2022-07-04T12:40:29;25.60;66.80
17154;DHT22;8692;52.164;7.558;2022-07-04T12:42:57;25.70;67.10
17154;DHT22;8692;52.164;7.558;2022-07-04T12:45:25;25.80;67.10
17154;DHT22;8692;52.164;7.558;2022-07-04T12:47:53;25.80;67.00
17154;DHT22;8692;52.164;7.558;2022-07-04T12:50:26;25.80;66.70
17154;DHT22;8692;52.164;7.558;2022-07-04T12:52:54;25.90;66.10
17154;DHT22;8692;52.164;7.558;2022-07-04T12:55:29;25.90;67.20
17154;DHT22;8692;52.164;7.558;2022-07-04T12:57:57;25.90;67.20
17154;DHT22;8692;52.164;7.558;2022-07-04T13:00:25;25.80;66.90
17154;DHT22;8692;52.164;7.558;2022-07-04T13:03:02;25.70;67.80
17154;DHT22;8692;52.164;7.558;2022-07-04T13:05:30;25.70;68.40
17154;DHT22;8692;52.164;7.558;2022-07-04T13:07:58;25.70;68.00
17154;DHT22;8692;52.164;7.558;2022-07-04T13:10:26;25.70;68.20
17154;DHT22;8692;52.164;7.558;2022-07-04T13:12:55;25.80;69.70
17154;DHT22;8692;52.164;7.558;2022-07-04T13:15:24;25.80;70.00
17154;DHT22;8692;52.164;7.558;2022-07-04T13:17:52;25.90;70.20
17154;DHT22;8692;52.164;7.558;2022-07-04T13:20:20;25.90;69.30
17154;DHT22;8692;52.164;7.558;2022-07-04T13:22:48;26.00;69.40
17154;DHT22;8692;52.164;7.558;2022-07-04T13:25:16;26.00;69.80
17154;DHT22;8692;52.164;7.558;2022-07-04T13:27:44;26.00;69.90
17154;DHT22;8692;52.164;7.558;2022-07-04T13:30:14;25.90;69.30
17154;DHT22;8692;52.164;7.558;2022-07-04T13:32:42;25.90;70.70
17154;DHT22;8692;52.164;7.558;2022-07-04T13:35:10;25.90;70.10
17154;DHT22;8692;52.164;7.558;2022-07-04T13:37:38;25.80;70.70
17154;DHT22;8692;52.164;7.558;2022-07-04T13:40:06;25.80;71.70
17154;DHT22;8692;52.164;7.558;2022-07-04T13:42:35;25.80;71.50
17154;DHT22;8692;52.164;7.558;2022-07-04T13:45:22;25.70;71.30
17154;DHT22;8692;52.164;7.558;2022-07-04T13:47:50;25.70;71.70
17154;DHT22;8692;52.164;7.558;2022-07-04T13:50:18;25.60;71.90
17154;DHT22;8692;52.164;7.558;2022-07-04T13:52:49;25.70;72.20
17154;DHT22;8692;52.164;7.558;2022-07-04T13:55:17;25.80;72.60
17154;DHT22;8692;52.164;7.558;2022-07-04T13:57:45;25.80;72.30
17154;DHT22;8692;52.164;7.558;2022-07-04T14:00:14;25.90;72.10
17154;DHT22;8692;52.164;7.558;2022-07-04T14:02:43;26.00;72.00
17154;DHT22;8692;52.164;7.558;2022-07-04T14:05:11;26.10;71.90
17154;DHT22;8692;52.164;7.558;2022-07-04T14:07:39;26.10;72.40
17154;DHT22;8692;52.164;7.558;2022-07-04T14:10:07;26.20;72.30
17154;DHT22;8692;52.164;7.558;2022-07-04T14:12:35;26.30;69.70
17154;DHT22;8692;52.164;7.558;2022-07-04T14:15:03;26.30;68.70
17154;DHT22;8692;52.164;7.558;2022-07-04T14:17:31;26.30;67.40
17154;DHT22;8692;52.164;7.558;2022-07-04T14:20:03;26.20;66.60
17154;DHT22;8692;52.164;7.558;2022-07-04T14:22:32;26.10;66.30
17154;DHT22;8692;52.164;7.558;2022-07-04T14:25:00;26.10;67.10
17154;DHT22;8692;52.164;7.558;2022-07-04T14:27:28;26.10;68.30
17154;DHT22;8692;52.164;7.558;2022-07-04T14:29:56;26.20;68.80
17154;DHT22;8692;52.164;7.558;2022-07-04T14:32:24;26.30;68.20
17154;DHT22;8692;52.164;7.558;2022-07-04T14:34:51;26.40;67.60
17154;DHT22;8692;52.164;7.558;2022-07-04T14:37:21;26.50;67.50
17154;DHT22;8692;52.164;7.558;2022-07-04T14:39:49;26.60;67.70
17154;DHT22;8692;52.164;7.558;2022-07-04T14:42:17;26.60;67.50
17154;DHT22;8692;52.164;7.558;2022-07-04T14:44:45;26.50;66.20
17154;DHT22;8692;52.164;7.558;2022-07-04T14:47:13;26.50;66.20
17154;DHT22;8692;52.164;7.558;2022-07-04T14:49:41;26.50;65.60
17154;DHT22;8692;52.164;7.558;2022-07-04T14:52:09;26.50;64.60
17154;DHT22;8692;52.164;7.558;2022-07-04T14:54:38;26.60;64.90
17154;DHT22;8692;52.164;7.558;2022-07-04T14:57:06;26.80;65.40
17154;DHT22;8692;52.164;7.558;2022-07-04T14:59:34;26.90;65.10
17154;DHT22;8692;52.164;7.558;2022-07-04T15:02:03;27.00;64.20
17154;DHT22;8692;52.164;7.558;2022-07-04T15:04:32;27.20;64.00
17154;DHT22;8692;52.164;7.558;2022-07-04T15:07:00;27.20;63.60
17154;DHT22;8692;52.164;7.558;2022-07-04T15:09:28;27.30;63.80
17154;DHT22;8692;52.164;7.558;2022-07-04T15:11:58;27.40;63.80
17154;DHT22;8692;52.164;7.558;2022-07-04T15:14:25;27.40;64.10
17154;DHT22;8692;52.164;7.558;2022-07-04T15:16:53;27.40;63.30
17154;DHT22;8692;52.164;7.558;2022-07-04T15:19:21;27.30;63.20
17154;DHT22;8692;52.164;7.558;2022-07-04T15:21:49;27.30;63.90
17154;DHT22;8692;52.164;7.558;2022-07-04T15:24:37;27.30;64.00
17154;DHT22;8692;52.164;7.558;2022-07-04T15:27:06;27.30;64.00
17154;DHT22;8692;52.164;7.558;2022-07-04T15:29:34;27.30;64.50
17154;DHT22;8692;52.164;7.558;2022-07-04T15:32:02;27.20;64.00
17154;DHT22;8692;52.164;7.558;2022-07-04T15:34:36;27.20;64.20
17154;DHT22;8692;52.164;7.558;2022-07-04T15:37:20;27.10;64.60
17154;DHT22;8692;52.164;7.558;2022-07-04T15:39:47;27.00;64.90
17154;DHT22;8692;52.164;7.558;2022-07-04T15:42:18;26.90;64.70
17154;DHT22;8692;52.164;7.558;2022-07-04T15:44:46;26.90;63.90
17154;DHT22;8692;52.164;7.558;2022-07-04T15:47:14;26.90;63.30
17154;DHT22;8692;52.164;7.558;2022-07-04T15:49:43;26.90;63.60
17154;DHT22;8692;52.164;7.558;2022-07-04T15:52:11;26.80;63.20
17154;DHT22;8692;52.164;7.558;2022-07-04T15:54:39;26.70;63.30
17154;DHT22;8692;52.164;7.558;2022-07-04T15:57:07;26.70;63.60
17154;DHT22;8692;52.164;7.558;2022-07-04T15:59:36;26.80;62.90
17154;DHT22;8692;52.164;7.558;2022-07-04T16:02:04;26.80;61.40
17154;DHT22;8692;52.164;7.558;2022-07-04T16:04:32;26.80;61.30
17154;DHT22;8692;52.164;7.558;2022-07-04T16:07:00;26.90;61.90
17154;DHT22;8692;52.164;7.558;2022-07-04T16:09:28;27.00;61.50
17154;DHT22;8692;52.164;7.558;2022-07-04T16:11:56;27.00;63.10
17154;DHT22;8692;52.164;7.558;2022-07-04T16:14:24;27.00;62.20